sensor_id;sensor_type;location;lat;lon;timestamp;pressure;altitude;pressure_sealevel;temperature
25985;BMP280;66753;53.848;10.658;2023-03-23T00:05:12;100272.59;;;12.61
25985;BMP280;66753;53.848;10.658;2023-03-23T00:15:13;100278.59;;;12.55
25985;BMP280;66753;53.848;10.658;2023-03-23T00:25:17;100275.84;;;12.48
25985;BMP280;66753;53.848;10.658;2023-03-23T00:35:18;100278.00;;;12.42
25985;BMP280;66753;53.848;10.658;2023-03-23T00:45:18;100284.88;;;12.43
25985;BMP280;66753;53.848;10.658;2023-03-23T00:55:18;100273.06;;;12.41
25985;BMP280;66753;53.848;10.658;2023-03-23T01:05:19;100268.38;;;12.34
25985;BMP280;66753;53.848;10.658;2023-03-23T01:15:21;100244.78;;;12.29
25985;BMP280;66753;53.848;10.658;2023-03-23T01:25:22;100231.03;;;12.24
25985;BMP280;66753;53.848;10.658;2023-03-23T01:35:22;100218.16;;;12.26
25985;BMP280;66753;53.848;10.658;2023-03-23T01:45:26;100206.69;;;12.22
25985;BMP280;66753;53.848;10.658;2023-03-23T01:55:27;100207.06;;;12.20
25985;BMP280;66753;53.848;10.658;2023-03-23T02:05:34;100198.28;;;12.16
25985;BMP280;66753;53.848;10.658;2023-03-23T02:36:18;100166.63;;;12.08
25985;BMP280;66753;53.848;10.658;2023-03-23T02:46:21;100160.19;;;12.09
25985;BMP280;66753;53.848;10.658;2023-03-23T02:56:25;100156.38;;;12.06
25985;BMP280;66753;53.848;10.658;2023-03-23T03:06:51;100126.38;;;12.06
25985;BMP280;66753;53.848;10.658;2023-03-23T03:17:07;100138.94;;;12.09
25985;BMP280;66753;53.848;10.658;2023-03-23T03:27:12;100144.97;;;12.06
25985;BMP280;66753;53.848;10.658;2023-03-23T03:37:17;100130.56;;;12.07
25985;BMP280;66753;53.848;10.658;2023-03-23T03:47:19;100087.38;;;12.10
25985;BMP280;66753;53.848;10.658;2023-03-23T03:57:19;100098.00;;;12.10
25985;BMP280;66753;53.848;10.658;2023-03-23T04:07:20;100081.69;;;12.11
25985;BMP280;66753;53.848;10.658;2023-03-23T04:17:21;100089.66;;;12.11
25985;BMP280;66753;53.848;10.658;2023-03-23T04:27:21;100101.03;;;12.12
25985;BMP280;66753;53.848;10.658;2023-03-23T04:37:24;100118.50;;;12.13
25985;BMP280;66753;53.848;10.658;2023-03-23T04:47:26;100126.91;;;12.15
25985;BMP280;66753;53.848;10.658;2023-03-23T04:57:29;100112.78;;;12.11
25985;BMP280;66753;53.848;10.658;2023-03-23T05:07:31;100099.50;;;12.11
25985;BMP280;66753;53.848;10.658;2023-03-23T05:17:32;100109.72;;;12.09
25985;BMP280;66753;53.848;10.658;2023-03-23T05:27:33;100091.53;;;12.11
25985;BMP280;66753;53.848;10.658;2023-03-23T05:37:34;100091.47;;;12.07
25985;BMP280;66753;53.848;10.658;2023-03-23T05:47:35;100079.03;;;12.11
25985;BMP280;66753;53.848;10.658;2023-03-23T05:57:35;100080.63;;;12.16
25985;BMP280;66753;53.848;10.658;2023-03-23T06:07:36;100076.88;;;12.20
25985;BMP280;66753;53.848;10.658;2023-03-23T06:17:38;100062.56;;;12.28
25985;BMP280;66753;53.848;10.658;2023-03-23T06:27:38;100057.19;;;12.25
25985;BMP280;66753;53.848;10.658;2023-03-23T06:37:39;100064.47;;;12.31
25985;BMP280;66753;53.848;10.658;2023-03-23T06:47:40;100077.81;;;12.64
25985;BMP280;66753;53.848;10.658;2023-03-23T06:57:41;100085.59;;;12.80
25985;BMP280;66753;53.848;10.658;2023-03-23T07:07:42;100096.72;;;13.32
25985;BMP280;66753;53.848;10.658;2023-03-23T07:17:42;100081.38;;;13.59
25985;BMP280;66753;53.848;10.658;2023-03-23T07:27:45;100076.16;;;13.73
25985;BMP280;66753;53.848;10.658;2023-03-23T07:37:45;100077.34;;;13.79
25985;BMP280;66753;53.848;10.658;2023-03-23T07:47:49;100079.06;;;14.15
25985;BMP280;66753;53.848;10.658;2023-03-23T07:57:50;100061.19;;;14.22
25985;BMP280;66753;53.848;10.658;2023-03-23T08:07:53;100064.84;;;13.93
25985;BMP280;66753;53.848;10.658;2023-03-23T08:17:55;100067.94;;;13.95
25985;BMP280;66753;53.848;10.658;2023-03-23T08:27:55;100099.13;;;13.98
25985;BMP280;66753;53.848;10.658;2023-03-23T08:37:56;100095.09;;;13.64
25985;BMP280;66753;53.848;10.658;2023-03-23T08:47:57;100102.00;;;13.25
25985;BMP280;66753;53.848;10.658;2023-03-23T08:57:59;100100.53;;;12.91
25985;BMP280;66753;53.848;10.658;2023-03-23T09:08:01;100096.19;;;12.76
25985;BMP280;66753;53.848;10.658;2023-03-23T09:18:02;100096.28;;;12.87
25985;BMP280;66753;53.848;10.658;2023-03-23T09:28:03;100133.78;;;13.48
25985;BMP280;66753;53.848;10.658;2023-03-23T09:38:05;100125.09;;;13.54
25985;BMP280;66753;53.848;10.658;2023-03-23T09:48:27;100141.84;;;13.58
25985;BMP280;66753;53.848;10.658;2023-03-23T09:58:42;100146.78;;;14.07
25985;BMP280;66753;53.848;10.658;2023-03-23T10:08:49;100151.53;;;14.38
25985;BMP280;66753;53.848;10.658;2023-03-23T10:39:15;100151.22;;;16.53
25985;BMP280;66753;53.848;10.658;2023-03-23T10:49:21;100148.84;;;16.76
25985;BMP280;66753;53.848;10.658;2023-03-23T10:59:27;100116.34;;;16.67
25985;BMP280;66753;53.848;10.658;2023-03-23T11:09:37;100146.22;;;16.65
25985;BMP280;66753;53.848;10.658;2023-03-23T11:19:37;100149.38;;;16.43
25985;BMP280;66753;53.848;10.658;2023-03-23T11:29:49;100146.72;;;16.32
25985;BMP280;66753;53.848;10.658;2023-03-23T11:39:58;100166.63;;;16.28
25985;BMP280;66753;53.848;10.658;2023-03-23T11:50:08;100164.28;;;16.37
25985;BMP280;66753;53.848;10.658;2023-03-23T12:00:15;100158.53;;;16.49
25985;BMP280;66753;53.848;10.658;2023-03-23T12:21:00;100156.66;;;16.39
25985;BMP280;66753;53.848;10.658;2023-03-23T12:31:16;100193.31;;;16.42
25985;BMP280;66753;53.848;10.658;2023-03-23T12:52:11;100144.09;;;16.25
25985;BMP280;66753;53.848;10.658;2023-03-23T13:02:23;100144.53;;;16.03
25985;BMP280;66753;53.848;10.658;2023-03-23T13:12:26;100148.22;;;16.44
25985;BMP280;66753;53.848;10.658;2023-03-23T13:22:32;100157.28;;;16.71
25985;BMP280;66753;53.848;10.658;2023-03-23T13:32:38;100183.63;;;16.79
25985;BMP280;66753;53.848;10.658;2023-03-23T13:42:49;100182.56;;;16.56
25985;BMP280;66753;53.848;10.658;2023-03-23T13:52:53;100211.72;;;16.22
25985;BMP280;66753;53.848;10.658;2023-03-23T14:13:21;100236.19;;;15.65
25985;BMP280;66753;53.848;10.658;2023-03-23T14:23:23;100225.44;;;15.30
25985;BMP280;66753;53.848;10.658;2023-03-23T14:33:25;100228.44;;;14.32
25985;BMP280;66753;53.848;10.658;2023-03-23T14:43:27;100221.91;;;13.76
25985;BMP280;66753;53.848;10.658;2023-03-23T15:03:35;100221.91;;;13.36
25985;BMP280;66753;53.848;10.658;2023-03-23T15:13:37;100241.03;;;13.88
25985;BMP280;66753;53.848;10.658;2023-03-23T15:23:43;100265.84;;;15.18
25985;BMP280;66753;53.848;10.658;2023-03-23T15:33:43;100266.72;;;15.74
25985;BMP280;66753;53.848;10.658;2023-03-23T15:43:53;100264.84;;;15.82
25985;BMP280;66753;53.848;10.658;2023-03-23T15:53:58;100270.53;;;15.63
25985;BMP280;66753;53.848;10.658;2023-03-23T16:04:11;100263.22;;;15.32
25985;BMP280;66753;53.848;10.658;2023-03-23T16:14:14;100283.16;;;14.70
25985;BMP280;66753;53.848;10.658;2023-03-23T16:24:14;100281.63;;;14.65
25985;BMP280;66753;53.848;10.658;2023-03-23T16:34:15;100274.56;;;14.36
25985;BMP280;66753;53.848;10.658;2023-03-23T16:44:15;100275.16;;;14.16
25985;BMP280;66753;53.848;10.658;2023-03-23T16:54:16;100275.41;;;14.04
25985;BMP280;66753;53.848;10.658;2023-03-23T17:04:16;100278.16;;;14.11
25985;BMP280;66753;53.848;10.658;2023-03-23T17:14:17;100270.72;;;13.87
25985;BMP280;66753;53.848;10.658;2023-03-23T17:24:17;100257.31;;;13.40
25985;BMP280;66753;53.848;10.658;2023-03-23T17:34:18;100268.66;;;13.04
25985;BMP280;66753;53.848;10.658;2023-03-23T17:44:18;100282.22;;;12.69
25985;BMP280;66753;53.848;10.658;2023-03-23T17:54:18;100281.16;;;12.48
25985;BMP280;66753;53.848;10.658;2023-03-23T18:04:19;100283.41;;;12.23
25985;BMP280;66753;53.848;10.658;2023-03-23T18:14:19;100299.13;;;12.09
25985;BMP280;66753;53.848;10.658;2023-03-23T18:24:20;100314.66;;;12.11
25985;BMP280;66753;53.848;10.658;2023-03-23T18:34:21;100316.63;;;12.14
25985;BMP280;66753;53.848;10.658;2023-03-23T18:44:21;100319.28;;;12.14
25985;BMP280;66753;53.848;10.658;2023-03-23T18:54:22;100339.31;;;12.08
25985;BMP280;66753;53.848;10.658;2023-03-23T19:04:22;100322.03;;;11.98
25985;BMP280;66753;53.848;10.658;2023-03-23T19:14:23;100296.00;;;11.85
25985;BMP280;66753;53.848;10.658;2023-03-23T19:24:23;100302.44;;;11.65
25985;BMP280;66753;53.848;10.658;2023-03-23T19:34:26;100300.19;;;11.48
25985;BMP280;66753;53.848;10.658;2023-03-23T19:44:27;100306.31;;;11.33
25985;BMP280;66753;53.848;10.658;2023-03-23T19:54:27;100307.16;;;11.18
25985;BMP280;66753;53.848;10.658;2023-03-23T20:04:28;100308.38;;;11.05
25985;BMP280;66753;53.848;10.658;2023-03-23T20:14:28;100319.94;;;10.97
25985;BMP280;66753;53.848;10.658;2023-03-23T20:24:29;100307.47;;;10.97
25985;BMP280;66753;53.848;10.658;2023-03-23T20:34:29;100306.00;;;11.00
25985;BMP280;66753;53.848;10.658;2023-03-23T20:44:31;100299.84;;;10.96
25985;BMP280;66753;53.848;10.658;2023-03-23T20:54:33;100301.22;;;10.90
25985;BMP280;66753;53.848;10.658;2023-03-23T21:04:34;100311.81;;;10.90
25985;BMP280;66753;53.848;10.658;2023-03-23T21:14:37;100307.28;;;10.90
25985;BMP280;66753;53.848;10.658;2023-03-23T21:24:38;100308.50;;;10.93
25985;BMP280;66753;53.848;10.658;2023-03-23T21:34:39;100312.88;;;11.01
25985;BMP280;66753;53.848;10.658;2023-03-23T21:44:40;100297.88;;;11.08
25985;BMP280;66753;53.848;10.658;2023-03-23T21:54:42;100290.38;;;11.14
25985;BMP280;66753;53.848;10.658;2023-03-23T22:04:43;100287.91;;;11.21
25985;BMP280;66753;53.848;10.658;2023-03-23T22:14:44;100278.53;;;11.27
25985;BMP280;66753;53.848;10.658;2023-03-23T22:24:45;100265.63;;;11.25
25985;BMP280;66753;53.848;10.658;2023-03-23T22:34:46;100252.28;;;11.22
25985;BMP280;66753;53.848;10.658;2023-03-23T22:44:48;100244.41;;;11.25
25985;BMP280;66753;53.848;10.658;2023-03-23T22:54:49;100229.38;;;11.33
25985;BMP280;66753;53.848;10.658;2023-03-23T23:04:49;100211.59;;;11.33
25985;BMP280;66753;53.848;10.658;2023-03-23T23:14:50;100195.59;;;11.30
25985;BMP280;66753;53.848;10.658;2023-03-23T23:24:51;100186.94;;;11.33
25985;BMP280;66753;53.848;10.658;2023-03-23T23:34:52;100160.91;;;11.38
25985;BMP280;66753;53.848;10.658;2023-03-23T23:44:54;100156.75;;;11.41
25985;BMP280;66753;53.848;10.658;2023-03-23T23:54:55;100144.28;;;11.41
